createdAt,value
2018-04-13T00:00:00.629Z,17.39
2018-04-13T00:02:27.045Z,17.30
2018-04-13T00:04:53.458Z,17.41
2018-04-13T00:07:19.864Z,17.19
2018-04-13T00:09:46.319Z,17.29
2018-04-13T00:12:12.783Z,17.11
2018-04-13T00:14:39.194Z,17.34
2018-04-13T00:17:05.620Z,17.15
2018-04-13T00:19:32.030Z,17.03
2018-04-13T00:21:58.439Z,17.05
2018-04-13T00:24:24.847Z,16.75
2018-04-13T00:26:51.355Z,16.37
2018-04-13T00:29:17.766Z,16.61
2018-04-13T00:31:44.199Z,16.77
2018-04-13T00:34:10.597Z,16.91
2018-04-13T00:36:37.002Z,16.86
2018-04-13T00:39:03.538Z,16.37
2018-04-13T00:41:30.018Z,16.41
2018-04-13T00:43:56.422Z,16.40
2018-04-13T00:46:22.821Z,16.28
2018-04-13T00:48:49.241Z,16.20
2018-04-13T00:51:15.669Z,16.30
2018-04-13T00:53:42.124Z,16.05
2018-04-13T00:56:08.530Z,16.16
2018-04-13T00:58:34.961Z,16.21
2018-04-13T01:01:01.375Z,16.13
2018-04-13T01:03:28.086Z,16.14
2018-04-13T01:05:54.534Z,15.96
2018-04-13T01:08:21.054Z,15.89
2018-04-13T01:10:47.529Z,15.87
2018-04-13T01:13:14.000Z,15.79
2018-04-13T01:15:40.467Z,15.81
2018-04-13T01:18:06.926Z,15.88
2018-04-13T01:20:33.404Z,15.84
2018-04-13T01:23:00.073Z,15.86
2018-04-13T01:25:26.531Z,15.61
2018-04-13T01:27:53.111Z,15.35
2018-04-13T01:30:19.522Z,15.23
2018-04-13T01:32:45.946Z,15.37
2018-04-13T01:35:12.378Z,15.60
2018-04-13T01:37:38.782Z,15.52
2018-04-13T01:40:05.599Z,15.50
2018-04-13T01:42:32.174Z,15.80
2018-04-13T01:44:58.658Z,15.74
2018-04-13T01:47:25.093Z,15.56
2018-04-13T01:49:51.548Z,15.68
2018-04-13T01:52:17.933Z,15.69
2018-04-13T01:54:44.329Z,15.61
2018-04-13T01:57:10.731Z,15.63
2018-04-13T01:59:37.156Z,15.37
2018-04-13T02:02:03.654Z,15.39
2018-04-13T02:04:30.061Z,15.44
2018-04-13T02:06:56.450Z,15.23
2018-04-13T02:09:22.871Z,14.42
2018-04-13T02:11:49.393Z,14.25
2018-04-13T02:14:15.860Z,14.24
2018-04-13T02:16:42.300Z,14.29
2018-04-13T02:19:08.642Z,14.21
2018-04-13T02:21:34.981Z,14.32
2018-04-13T02:24:01.388Z,14.42
2018-04-13T02:26:27.701Z,13.79
2018-04-13T02:28:54.031Z,13.60
2018-04-13T02:31:20.584Z,13.51
2018-04-13T02:33:46.918Z,13.91
2018-04-13T02:36:13.258Z,13.80
2018-04-13T02:38:39.635Z,13.82
2018-04-13T02:41:05.999Z,13.92
2018-04-13T02:43:32.342Z,13.66
2018-04-13T02:45:58.661Z,13.69
2018-04-13T02:48:25.007Z,13.45
2018-04-13T02:50:51.441Z,13.63
2018-04-13T02:53:17.771Z,13.32
2018-04-13T02:55:44.082Z,13.26
2018-04-13T02:58:10.406Z,13.24
2018-04-13T03:00:36.758Z,13.05
2018-04-13T03:03:03.119Z,12.81
2018-04-13T03:05:29.453Z,13.04
2018-04-13T03:07:55.830Z,12.88
2018-04-13T03:10:22.207Z,12.86
2018-04-13T03:12:48.590Z,12.99
2018-04-13T03:15:14.897Z,12.88
2018-04-13T03:17:41.221Z,12.85
2018-04-13T03:20:07.550Z,12.85
2018-04-13T03:22:33.994Z,12.22
2018-04-13T03:25:00.329Z,12.70
2018-04-13T03:27:26.670Z,12.74
2018-04-13T03:29:53.010Z,12.82
2018-04-13T03:32:19.371Z,13.08
2018-04-13T03:34:45.725Z,12.99
2018-04-13T03:37:12.240Z,13.23
2018-04-13T03:39:38.553Z,13.29
2018-04-13T03:42:04.930Z,13.32
2018-04-13T03:44:31.291Z,13.66
2018-04-13T03:46:57.641Z,13.77
2018-04-13T03:49:23.964Z,13.54
2018-04-13T03:51:50.302Z,13.06
2018-04-13T03:54:16.633Z,12.82
2018-04-13T03:56:42.989Z,12.28
2018-04-13T03:59:09.298Z,12.42
2018-04-13T04:01:35.757Z,12.45
2018-04-13T04:04:02.104Z,12.72
2018-04-13T04:06:28.450Z,13.02
2018-04-13T04:08:54.820Z,12.76
2018-04-13T04:11:21.146Z,13.10
2018-04-13T04:13:47.596Z,12.41
2018-04-13T04:16:13.939Z,12.47
2018-04-13T04:18:40.270Z,12.82
2018-04-13T04:21:18.744Z,12.89
2018-04-13T04:23:58.326Z,12.89
2018-04-13T04:26:36.937Z,12.60
2018-04-13T04:29:03.286Z,12.58
2018-04-13T04:31:29.642Z,12.83
2018-04-13T04:33:55.969Z,12.97
2018-04-13T04:36:22.349Z,12.82
2018-04-13T04:38:48.677Z,12.71
2018-04-13T04:41:14.998Z,12.79
2018-04-13T04:43:41.345Z,13.20
2018-04-13T04:46:07.754Z,13.36
2018-04-13T04:48:34.114Z,13.30
2018-04-13T04:51:00.437Z,13.30
2018-04-13T04:53:26.781Z,13.11
2018-04-13T04:55:53.251Z,12.95
2018-04-13T04:58:19.768Z,13.43
2018-04-13T05:00:46.302Z,13.31
2018-04-13T05:03:12.670Z,13.54
2018-04-13T05:05:39.006Z,13.03
2018-04-13T05:08:05.326Z,13.51
2018-04-13T05:10:31.678Z,13.58
2018-04-13T05:12:58.042Z,13.65
2018-04-13T05:15:24.422Z,13.42
2018-04-13T05:17:50.761Z,13.63
2018-04-13T05:20:17.297Z,13.62
2018-04-13T05:22:43.617Z,13.91
2018-04-13T05:25:09.999Z,13.87
2018-04-13T05:27:36.395Z,13.84
2018-04-13T05:30:02.817Z,13.98
2018-04-13T05:32:30.509Z,13.48
2018-04-13T05:34:57.450Z,13.48
2018-04-13T05:37:23.805Z,13.55
2018-04-13T05:39:50.146Z,13.66
2018-04-13T05:42:16.503Z,13.83
2018-04-13T05:44:42.847Z,13.88
2018-04-13T05:47:09.170Z,14.22
2018-04-13T05:49:35.521Z,14.43
2018-04-13T05:52:02.002Z,14.44
2018-04-13T05:54:28.358Z,14.53
2018-04-13T05:56:54.785Z,14.41
2018-04-13T05:59:21.116Z,14.31
2018-04-13T06:01:47.454Z,14.32
2018-04-13T06:04:13.789Z,14.04
2018-04-13T06:06:40.149Z,14.22
2018-04-13T06:09:06.572Z,14.29
2018-04-13T06:11:33.058Z,14.29
2018-04-13T06:13:59.391Z,14.45
2018-04-13T06:16:25.717Z,14.64
2018-04-13T06:18:52.126Z,14.54
2018-04-13T06:21:18.470Z,14.63
2018-04-13T06:23:44.815Z,14.86
2018-04-13T06:26:11.321Z,14.88
2018-04-13T06:28:37.673Z,14.68
2018-04-13T06:31:04.027Z,14.76
2018-04-13T06:33:30.917Z,14.89
2018-04-13T06:35:57.346Z,14.67
2018-04-13T06:38:23.679Z,14.91
2018-04-13T06:40:50.026Z,15.14
2018-04-13T06:43:16.407Z,15.27
2018-04-13T06:45:42.735Z,15.31
2018-04-13T06:48:09.046Z,15.48
2018-04-13T06:50:35.393Z,15.56
2018-04-13T06:53:01.706Z,15.58
2018-04-13T06:55:28.021Z,15.52
2018-04-13T06:57:54.549Z,15.73
2018-04-13T07:00:20.902Z,15.76
2018-04-13T07:02:47.258Z,16.01
2018-04-13T07:05:13.692Z,16.14
2018-04-13T07:07:40.050Z,16.40
2018-04-13T07:10:06.413Z,16.17
2018-04-13T07:12:32.793Z,15.95
2018-04-13T07:14:59.221Z,16.16
2018-04-13T07:17:25.534Z,16.46
2018-04-13T07:19:52.314Z,16.64
2018-04-13T07:22:19.452Z,16.55
2018-04-13T07:24:47.344Z,16.73
2018-04-13T07:27:15.674Z,16.92
2018-04-13T07:29:43.174Z,17.27
2018-04-13T07:32:10.378Z,17.45
2018-04-13T07:34:36.833Z,17.65
2018-04-13T07:37:03.190Z,17.90
2018-04-13T07:39:29.597Z,17.91
2018-04-13T07:41:55.927Z,18.20
2018-04-13T07:44:22.266Z,17.99
2018-04-13T07:46:50.041Z,18.01
2018-04-13T07:49:18.236Z,18.21
2018-04-13T07:51:47.071Z,18.39
2018-04-13T07:54:20.247Z,18.42
2018-04-13T07:56:49.810Z,18.54
2018-04-13T07:59:23.648Z,18.61
2018-04-13T08:01:53.103Z,18.52
2018-04-13T08:04:21.667Z,18.42
2018-04-13T08:06:49.591Z,18.38
2018-04-13T08:09:17.621Z,18.42
2018-04-13T08:11:48.282Z,18.38
2018-04-13T08:14:19.163Z,18.65
2018-04-13T08:16:50.617Z,18.59
2018-04-13T08:19:21.996Z,18.54
2018-04-13T08:21:51.181Z,18.59
2018-04-13T08:24:19.822Z,18.68
2018-04-13T08:26:46.829Z,18.52
2018-04-13T08:29:13.700Z,18.42
2018-04-13T08:31:40.511Z,18.31
2018-04-13T08:34:10.393Z,18.46
2018-04-13T08:36:36.929Z,18.71
2018-04-13T08:39:03.383Z,18.87
2018-04-13T08:41:29.778Z,18.94
2018-04-13T08:43:56.096Z,18.98
2018-04-13T08:46:22.433Z,18.85
2018-04-13T08:48:48.830Z,19.02
2018-04-13T08:51:15.151Z,18.96
2018-04-13T08:53:41.698Z,19.13
2018-04-13T08:56:08.030Z,19.27
2018-04-13T08:58:34.383Z,19.32
2018-04-13T09:01:01.052Z,19.50
2018-04-13T09:03:27.394Z,19.68
2018-04-13T09:05:54.227Z,19.86
2018-04-13T09:08:21.199Z,19.98
2018-04-13T09:10:47.637Z,19.81
2018-04-13T09:13:13.962Z,19.99
2018-04-13T09:15:40.346Z,20.21
2018-04-13T09:18:06.675Z,20.36
2018-04-13T09:20:33.158Z,20.46
2018-04-13T09:22:59.542Z,20.44
2018-04-13T09:25:26.079Z,20.28
2018-04-13T09:27:52.409Z,20.16
2018-04-13T09:30:18.740Z,20.46
2018-04-13T09:32:45.110Z,20.48
2018-04-13T09:35:11.486Z,20.73
2018-04-13T09:37:37.853Z,20.93
2018-04-13T09:40:04.226Z,20.88
2018-04-13T09:42:30.566Z,21.02
2018-04-13T09:44:56.897Z,21.03
2018-04-13T09:47:23.269Z,21.14
2018-04-13T09:49:49.601Z,21.31
2018-04-13T09:52:16.010Z,21.33
2018-04-13T09:54:42.338Z,21.07
2018-04-13T09:57:08.811Z,21.03
2018-04-13T09:59:35.148Z,21.20
2018-04-13T10:02:01.531Z,21.21
2018-04-13T10:04:33.938Z,21.24
2018-04-13T10:07:00.439Z,21.36
2018-04-13T10:09:27.591Z,21.50
2018-04-13T10:11:54.203Z,21.58
2018-04-13T10:14:20.558Z,21.69
2018-04-13T10:16:46.894Z,21.72
2018-04-13T10:19:13.222Z,21.79
2018-04-13T10:21:39.792Z,21.93
2018-04-13T10:24:06.129Z,22.10
2018-04-13T10:26:32.602Z,22.16
2018-04-13T10:28:59.234Z,22.31
2018-04-13T10:31:25.653Z,22.40
2018-04-13T10:33:52.058Z,22.50
2018-04-13T10:36:18.434Z,22.58
2018-04-13T10:38:44.793Z,22.64
2018-04-13T10:41:11.122Z,22.53
2018-04-13T10:43:37.530Z,22.80
2018-04-13T10:46:03.878Z,22.78
2018-04-13T10:48:30.261Z,22.95
2018-04-13T10:50:56.605Z,23.05
2018-04-13T10:53:23.017Z,23.06
2018-04-13T10:55:49.345Z,23.05
2018-04-13T10:58:15.772Z,23.09
2018-04-13T11:00:42.109Z,23.03
2018-04-13T11:03:08.453Z,23.06
2018-04-13T11:05:34.794Z,23.13
2018-04-13T11:08:01.195Z,23.26
2018-04-13T11:10:27.633Z,23.32
2018-04-13T11:12:54.125Z,23.31
2018-04-13T11:15:20.466Z,23.42
2018-04-13T11:17:46.802Z,23.46
2018-04-13T11:20:13.125Z,23.43
2018-04-13T11:22:39.457Z,23.45
2018-04-13T11:25:05.798Z,23.56
2018-04-13T11:27:32.723Z,23.58
2018-04-13T11:29:59.069Z,23.64
2018-04-13T11:32:25.394Z,23.64
2018-04-13T11:34:51.746Z,23.68
2018-04-13T11:37:18.067Z,23.62
2018-04-13T11:39:44.478Z,23.72
2018-04-13T11:42:10.832Z,23.77
2018-04-13T11:44:37.161Z,23.83
2018-04-13T11:47:03.623Z,23.86
2018-04-13T11:49:29.986Z,23.95
2018-04-13T11:51:56.364Z,23.88
2018-04-13T11:54:22.780Z,23.60
2018-04-13T11:56:49.126Z,23.60
2018-04-13T11:59:15.515Z,23.68
2018-04-13T12:01:41.911Z,23.74
2018-04-13T12:04:08.274Z,23.67
2018-04-13T12:06:34.652Z,23.79
2018-04-13T12:09:01.051Z,23.94
2018-04-13T12:11:27.678Z,24.02
2018-04-13T12:13:54.058Z,23.98
2018-04-13T12:16:20.516Z,23.93
2018-04-13T12:18:46.950Z,23.97
2018-04-13T12:21:13.382Z,24.02
2018-04-13T12:23:39.815Z,24.05
2018-04-13T12:26:06.214Z,24.15
2018-04-13T12:28:32.581Z,24.21
2018-04-13T12:30:58.941Z,24.16
2018-04-13T12:33:25.319Z,24.05
2018-04-13T12:35:51.649Z,24.09
2018-04-13T12:38:17.981Z,24.21
2018-04-13T12:40:44.344Z,24.20
2018-04-13T12:43:10.978Z,24.23
2018-04-13T12:45:37.369Z,24.24
2018-04-13T12:48:03.849Z,24.28
2018-04-13T12:50:30.197Z,24.23
2018-04-13T12:52:56.798Z,24.26
2018-04-13T12:55:23.362Z,24.31
2018-04-13T12:57:50.041Z,24.50
2018-04-13T13:00:16.673Z,24.40
2018-04-13T13:02:43.067Z,24.52
2018-04-13T13:05:09.491Z,24.38
2018-04-13T13:07:35.923Z,24.38
2018-04-13T13:10:02.263Z,24.42
2018-04-13T13:12:28.638Z,24.45
2018-04-13T13:14:55.125Z,24.46
2018-04-13T13:17:21.497Z,24.40
2018-04-13T13:19:48.110Z,24.33
2018-04-13T13:22:14.478Z,24.33
2018-04-13T13:24:40.830Z,24.40
2018-04-13T13:27:07.290Z,24.38
2018-04-13T13:29:33.634Z,24.48
2018-04-13T13:32:00.023Z,24.54
2018-04-13T13:34:26.367Z,24.58
2018-04-13T13:36:52.707Z,24.65
2018-04-13T13:39:19.030Z,24.70
2018-04-13T13:41:45.394Z,24.70
2018-04-13T13:44:11.710Z,24.70
2018-04-13T13:46:38.058Z,24.67
2018-04-13T13:49:04.475Z,24.76
2018-04-13T13:51:30.806Z,24.75
2018-04-13T13:53:57.155Z,24.86
2018-04-13T13:56:23.495Z,24.77
2018-04-13T13:58:49.909Z,24.65
2018-04-13T14:01:16.238Z,24.62
2018-04-13T14:03:42.666Z,24.58
2018-04-13T14:06:09.029Z,24.65
2018-04-13T14:08:35.580Z,24.73
2018-04-13T14:11:02.042Z,24.78
2018-04-13T14:13:28.450Z,24.72
2018-04-13T14:15:54.870Z,24.69
2018-04-13T14:18:21.237Z,24.68
2018-04-13T14:20:47.607Z,24.69
2018-04-13T14:23:14.051Z,24.61
2018-04-13T14:25:40.505Z,24.63
2018-04-13T14:28:06.922Z,24.73
2018-04-13T14:30:33.362Z,24.68
2018-04-13T14:32:59.738Z,24.70
2018-04-13T14:35:26.178Z,24.63
2018-04-13T14:37:53.378Z,24.74
2018-04-13T14:40:19.780Z,24.68
2018-04-13T14:43:24.488Z,24.74
2018-04-13T14:45:50.778Z,24.64
2018-04-13T14:48:17.128Z,24.49
2018-04-13T14:50:45.733Z,24.53
2018-04-13T14:53:12.004Z,24.44
2018-04-13T14:55:38.395Z,24.44
2018-04-13T14:58:04.754Z,24.34
2018-04-13T15:00:31.122Z,24.33
2018-04-13T15:02:57.490Z,24.34
2018-04-13T15:05:23.794Z,24.37
2018-04-13T15:07:50.746Z,24.38
2018-04-13T15:10:17.534Z,24.42
2018-04-13T15:12:43.975Z,24.54
2018-04-13T15:15:10.351Z,24.59
2018-04-13T15:17:36.639Z,24.51
2018-04-13T15:20:03.057Z,24.44
2018-04-13T15:22:29.346Z,24.49
2018-04-13T15:24:55.763Z,24.48
2018-04-13T15:27:22.057Z,24.48
2018-04-13T15:29:48.337Z,24.46
2018-04-13T15:32:14.795Z,24.42
2018-04-13T15:34:41.098Z,24.36
2018-04-13T15:37:07.386Z,24.36
2018-04-13T15:39:33.662Z,24.37
2018-04-13T15:41:59.934Z,24.31
2018-04-13T15:44:26.231Z,24.35
2018-04-13T15:46:52.526Z,24.26
2018-04-13T15:49:18.869Z,24.24
2018-04-13T15:51:45.213Z,24.25
2018-04-13T15:54:11.522Z,24.30
2018-04-13T15:56:37.862Z,24.25
2018-04-13T15:59:04.159Z,24.22
2018-04-13T16:01:30.506Z,24.17
2018-04-13T16:03:56.789Z,24.21
2018-04-13T16:06:23.081Z,24.20
2018-04-13T16:08:49.555Z,24.20
2018-04-13T16:11:15.854Z,24.19
2018-04-13T16:13:42.189Z,24.13
2018-04-13T16:16:08.482Z,24.10
2018-04-13T16:18:34.779Z,24.04
2018-04-13T16:21:01.108Z,24.03
2018-04-13T16:23:27.450Z,24.02
2018-04-13T16:25:54.492Z,23.95
2018-04-13T16:28:20.786Z,23.88
2018-04-13T16:30:47.151Z,23.85
2018-04-13T16:33:13.461Z,23.85
2018-04-13T16:35:39.745Z,23.85
2018-04-13T16:38:06.082Z,23.84
2018-04-13T16:40:32.372Z,23.78
2018-04-13T16:42:58.703Z,23.75
2018-04-13T16:45:25.137Z,23.73
2018-04-13T16:47:51.434Z,23.66
2018-04-13T16:50:17.829Z,23.61
2018-04-13T16:52:44.130Z,23.57
2018-04-13T16:55:10.491Z,23.54
2018-04-13T16:57:36.786Z,23.52
2018-04-13T17:00:03.153Z,23.52
2018-04-13T17:02:29.867Z,23.47
2018-04-13T17:04:56.171Z,23.44
2018-04-13T17:07:22.587Z,23.39
2018-04-13T17:09:48.873Z,23.34
2018-04-13T17:12:15.289Z,23.30
2018-04-13T17:14:41.570Z,23.26
2018-04-13T17:17:07.849Z,23.23
2018-04-13T17:19:34.139Z,23.21
2018-04-13T17:22:00.514Z,23.18
2018-04-13T17:24:26.814Z,23.12
2018-04-13T17:26:53.099Z,23.11
2018-04-13T17:29:19.419Z,23.09
2018-04-13T17:31:45.802Z,23.05
2018-04-13T17:34:12.165Z,23.02
2018-04-13T17:36:38.449Z,22.97
2018-04-13T17:39:04.811Z,22.93
2018-04-13T17:41:31.090Z,22.89
2018-04-13T17:43:57.388Z,22.86
2018-04-13T17:46:23.686Z,22.82
2018-04-13T17:48:49.970Z,22.79
2018-04-13T17:51:16.237Z,22.75
2018-04-13T17:53:42.658Z,22.70
2018-04-13T17:56:08.939Z,22.66
2018-04-13T17:58:35.213Z,22.60
2018-04-13T18:01:01.527Z,22.56
2018-04-13T18:03:27.982Z,22.55
2018-04-13T18:05:54.324Z,22.54
2018-04-13T18:08:34.366Z,22.51
2018-04-13T18:11:00.646Z,22.47
2018-04-13T18:13:26.946Z,22.43
2018-04-13T18:15:53.267Z,22.39
2018-04-13T18:18:19.542Z,22.35
2018-04-13T18:20:45.868Z,22.34
2018-04-13T18:23:12.199Z,22.33
2018-04-13T18:25:38.530Z,22.30
2018-04-13T18:28:06.251Z,22.30
2018-04-13T18:30:32.697Z,22.26
2018-04-13T18:32:59.081Z,22.22
2018-04-13T18:35:25.391Z,22.18
2018-04-13T18:37:51.657Z,22.14
2018-04-13T18:40:17.935Z,22.10
2018-04-13T18:42:44.209Z,22.08
2018-04-13T18:45:10.493Z,22.03
2018-04-13T18:47:36.823Z,21.97
2018-04-13T18:50:03.201Z,21.93
2018-04-13T18:52:29.465Z,21.90
2018-04-13T18:54:55.799Z,21.87
2018-04-13T18:57:22.072Z,21.85
2018-04-13T18:59:48.362Z,21.82
2018-04-13T19:02:14.682Z,21.81
2018-04-13T19:04:40.953Z,21.78
2018-04-13T19:07:07.234Z,21.74
2018-04-13T19:09:33.522Z,21.72
2018-04-13T19:11:59.949Z,21.69
2018-04-13T19:14:26.217Z,21.64
2018-04-13T19:16:52.503Z,21.59
2018-04-13T19:19:18.787Z,21.56
2018-04-13T19:21:45.150Z,21.53
2018-04-13T19:24:11.427Z,21.50
2018-04-13T19:26:37.833Z,21.47
2018-04-13T19:29:04.132Z,21.44
2018-04-13T19:31:30.413Z,21.40
2018-04-13T19:33:56.687Z,21.36
2018-04-13T19:36:23.062Z,21.33
2018-04-13T19:38:49.409Z,21.30
2018-04-13T19:41:15.710Z,21.26
2018-04-13T19:43:41.998Z,21.25
2018-04-13T19:46:08.330Z,21.22
2018-04-13T19:48:34.602Z,21.20
2018-04-13T19:51:00.886Z,21.18
2018-04-13T19:53:27.165Z,21.15
2018-04-13T19:55:53.497Z,21.12
2018-04-13T19:58:19.766Z,21.08
2018-04-13T20:00:46.070Z,21.05
2018-04-13T20:03:12.438Z,21.03
2018-04-13T20:05:38.727Z,20.98
2018-04-13T20:08:05.006Z,20.96
2018-04-13T20:10:31.309Z,20.95
2018-04-13T20:12:57.594Z,20.93
2018-04-13T20:15:23.918Z,20.91
2018-04-13T20:17:50.216Z,20.89
2018-04-13T20:20:16.562Z,20.90
2018-04-13T20:22:42.838Z,20.82
2018-04-13T20:25:09.146Z,20.81
2018-04-13T20:27:35.491Z,20.78
2018-04-13T20:30:01.806Z,20.50
2018-04-13T20:32:28.095Z,20.60
2018-04-13T20:34:54.371Z,20.62
2018-04-13T20:37:20.674Z,20.63
2018-04-13T20:39:46.962Z,20.65
2018-04-13T20:42:13.287Z,20.62
2018-04-13T20:44:39.603Z,20.59
2018-04-13T20:47:05.899Z,20.59
2018-04-13T20:49:32.205Z,20.54
2018-04-13T20:51:58.481Z,20.51
2018-04-13T20:54:24.760Z,20.49
2018-04-13T20:56:51.089Z,20.47
2018-04-13T20:59:17.375Z,20.41
2018-04-13T21:01:43.647Z,20.38
2018-04-13T21:04:10.002Z,20.34
2018-04-13T21:06:36.286Z,20.33
2018-04-13T21:09:02.679Z,20.29
2018-04-13T21:11:29.145Z,20.05
2018-04-13T21:13:55.478Z,20.00
2018-04-13T21:16:21.883Z,19.93
2018-04-13T21:18:48.178Z,19.88
2018-04-13T21:21:14.454Z,19.82
2018-04-13T21:23:40.729Z,19.59
2018-04-13T21:26:07.020Z,19.57
2018-04-13T21:28:33.314Z,19.63
2018-04-13T21:30:59.590Z,19.58
2018-04-13T21:33:25.865Z,19.39
2018-04-13T21:35:52.149Z,19.39
2018-04-13T21:38:18.442Z,19.28
2018-04-13T21:40:44.711Z,19.12
2018-04-13T21:43:10.985Z,19.20
2018-04-13T21:45:37.303Z,19.26
2018-04-13T21:48:03.703Z,19.32
2018-04-13T21:50:30.022Z,19.36
2018-04-13T21:52:56.294Z,19.36
2018-04-13T21:55:22.633Z,19.27
2018-04-13T21:57:48.902Z,19.29
2018-04-13T22:00:15.176Z,19.29
2018-04-13T22:02:41.441Z,19.36
2018-04-13T22:05:07.904Z,19.39
2018-04-13T22:07:34.180Z,19.32
2018-04-13T22:10:00.467Z,19.22
2018-04-13T22:12:38.818Z,19.06
2018-04-13T22:15:05.153Z,18.86
2018-04-13T22:17:31.578Z,19.04
2018-04-13T22:19:57.885Z,18.95
2018-04-13T22:22:24.212Z,18.84
2018-04-13T22:24:50.547Z,18.68
2018-04-13T22:27:16.896Z,18.65
2018-04-13T22:29:43.182Z,18.22
2018-04-13T22:32:09.537Z,18.26
2018-04-13T22:34:35.820Z,18.33
2018-04-13T22:37:02.174Z,18.36
2018-04-13T22:39:28.448Z,18.38
2018-04-13T22:41:54.787Z,18.35
2018-04-13T22:44:21.058Z,18.25
2018-04-13T22:46:47.401Z,18.26
2018-04-13T22:49:13.730Z,18.25
2018-04-13T22:51:40.122Z,18.32
2018-04-13T22:54:06.448Z,18.34
2018-04-13T22:56:32.799Z,18.37
2018-04-13T22:58:59.154Z,18.25
2018-04-13T23:01:25.434Z,18.35
2018-04-13T23:03:51.766Z,18.32
2018-04-13T23:06:18.122Z,18.37
2018-04-13T23:08:44.463Z,18.26
2018-04-13T23:11:10.853Z,18.20
2018-04-13T23:13:37.195Z,18.23
2018-04-13T23:16:03.601Z,17.97
2018-04-13T23:18:29.933Z,18.00
2018-04-13T23:20:56.294Z,18.00
2018-04-13T23:23:22.648Z,18.08
2018-04-13T23:25:48.965Z,18.09
2018-04-13T23:28:15.300Z,17.87
2018-04-13T23:30:41.649Z,17.80
2018-04-13T23:33:08.005Z,17.75
2018-04-13T23:35:34.376Z,17.72
2018-04-13T23:38:00.700Z,17.44
2018-04-13T23:40:27.079Z,17.68
2018-04-13T23:42:53.454Z,17.63
2018-04-13T23:45:19.819Z,17.62
2018-04-13T23:47:46.157Z,17.62
2018-04-13T23:50:12.497Z,17.54
2018-04-13T23:52:38.874Z,17.67
2018-04-13T23:55:05.205Z,17.67
2018-04-13T23:57:31.533Z,17.66
2018-04-13T23:59:57.885Z,17.71
